sensor_id;sensor_type;location;lat;lon;timestamp;pressure;altitude;pressure_sealevel;temperature;humidity
5954;BME280;3002;42.642;24.812;2023-03-21T00:00:47;96412.38;;;15.37;54.55
5954;BME280;3002;42.642;24.812;2023-03-21T00:03:13;96365.81;;;14.71;56.22
5954;BME280;3002;42.642;24.812;2023-03-21T00:05:41;96398.84;;;14.77;56.83
5954;BME280;3002;42.642;24.812;2023-03-21T00:08:07;96391.41;;;14.99;56.03
5954;BME280;3002;42.642;24.812;2023-03-21T00:10:32;96354.53;;;14.78;55.16
5954;BME280;3002;42.642;24.812;2023-03-21T00:12:58;96365.84;;;15.06;54.59
5954;BME280;3002;42.642;24.812;2023-03-21T00:15:26;96354.53;;;14.86;55.96
5954;BME280;3002;42.642;24.812;2023-03-21T00:17:54;96390.59;;;15.16;55.60
5954;BME280;3002;42.642;24.812;2023-03-21T00:20:31;96357.22;;;14.86;56.01
5954;BME280;3002;42.642;24.812;2023-03-21T00:22:59;96376.78;;;15.01;56.38
5954;BME280;3002;42.642;24.812;2023-03-21T00:25:26;96360.88;;;14.90;56.33
5954;BME280;3002;42.642;24.812;2023-03-21T00:27:51;96351.53;;;14.96;55.81
5954;BME280;3002;42.642;24.812;2023-03-21T00:30:17;96365.97;;;15.01;55.50
5954;BME280;3002;42.642;24.812;2023-03-21T00:32:42;96361.03;;;14.85;54.74
5954;BME280;3002;42.642;24.812;2023-03-21T00:35:09;96355.31;;;14.78;56.36
5954;BME280;3002;42.642;24.812;2023-03-21T00:37:34;96365.03;;;14.96;56.07
5954;BME280;3002;42.642;24.812;2023-03-21T00:40:00;96330.06;;;14.65;56.82
5954;BME280;3002;42.642;24.812;2023-03-21T00:42:25;96317.53;;;14.69;56.98
5954;BME280;3002;42.642;24.812;2023-03-21T00:44:51;96339.31;;;14.82;57.05
5954;BME280;3002;42.642;24.812;2023-03-21T00:47:16;96312.28;;;14.73;57.23
5954;BME280;3002;42.642;24.812;2023-03-21T00:49:42;96346.28;;;14.91;56.74
5954;BME280;3002;42.642;24.812;2023-03-21T00:52:08;96302.44;;;14.68;57.39
5954;BME280;3002;42.642;24.812;2023-03-21T00:54:35;96342.63;;;14.79;57.59
5954;BME280;3002;42.642;24.812;2023-03-21T00:57:02;96338.81;;;14.80;57.55
5954;BME280;3002;42.642;24.812;2023-03-21T00:59:29;96305.66;;;14.05;58.58
5954;BME280;3002;42.642;24.812;2023-03-21T01:01:56;96306.50;;;14.31;57.34
5954;BME280;3002;42.642;24.812;2023-03-21T01:04:25;96308.94;;;14.50;57.50
5954;BME280;3002;42.642;24.812;2023-03-21T01:06:52;96309.56;;;14.56;57.38
5954;BME280;3002;42.642;24.812;2023-03-21T01:09:20;96319.44;;;14.52;57.38
5954;BME280;3002;42.642;24.812;2023-03-21T01:11:47;96290.59;;;14.04;57.61
5954;BME280;3002;42.642;24.812;2023-03-21T01:14:14;96286.03;;;14.39;57.37
5954;BME280;3002;42.642;24.812;2023-03-21T01:16:40;96309.84;;;14.28;58.23
5954;BME280;3002;42.642;24.812;2023-03-21T01:19:07;96269.16;;;13.99;58.63
5954;BME280;3002;42.642;24.812;2023-03-21T01:21:34;96264.44;;;13.73;59.35
5954;BME280;3002;42.642;24.812;2023-03-21T01:24:00;96286.59;;;14.01;59.00
5954;BME280;3002;42.642;24.812;2023-03-21T01:26:26;96302.63;;;14.15;59.16
5954;BME280;3002;42.642;24.812;2023-03-21T01:28:51;96290.84;;;13.93;59.65
5954;BME280;3002;42.642;24.812;2023-03-21T01:31:17;96279.94;;;13.99;59.36
5954;BME280;3002;42.642;24.812;2023-03-21T01:33:43;96305.50;;;14.18;58.82
5954;BME280;3002;42.642;24.812;2023-03-21T01:36:15;96302.34;;;14.25;59.36
5954;BME280;3002;42.642;24.812;2023-03-21T01:38:42;96279.19;;;14.15;58.46
5954;BME280;3002;42.642;24.812;2023-03-21T01:41:37;96274.41;;;14.04;59.16
5954;BME280;3002;42.642;24.812;2023-03-21T01:44:01;96299.47;;;14.04;60.17
5954;BME280;3002;42.642;24.812;2023-03-21T01:46:40;96291.66;;;14.03;60.31
5954;BME280;3002;42.642;24.812;2023-03-21T01:49:12;96272.25;;;13.75;60.94
5954;BME280;3002;42.642;24.812;2023-03-21T01:51:42;96287.13;;;13.72;61.30
5954;BME280;3002;42.642;24.812;2023-03-21T01:54:13;96260.94;;;13.64;61.34
5954;BME280;3002;42.642;24.812;2023-03-21T01:56:39;96264.25;;;13.61;61.60
5954;BME280;3002;42.642;24.812;2023-03-21T01:59:19;96283.63;;;14.11;60.98
5954;BME280;3002;42.642;24.812;2023-03-21T02:01:49;96281.66;;;14.03;61.39
5954;BME280;3002;42.642;24.812;2023-03-21T02:04:16;96252.19;;;13.98;61.36
5954;BME280;3002;42.642;24.812;2023-03-21T02:06:56;96271.38;;;14.05;61.18
5954;BME280;3002;42.642;24.812;2023-03-21T02:09:25;96281.09;;;14.24;60.62
5954;BME280;3002;42.642;24.812;2023-03-21T02:11:53;96263.44;;;14.00;61.11
5954;BME280;3002;42.642;24.812;2023-03-21T02:14:19;96251.34;;;13.80;61.30
5954;BME280;3002;42.642;24.812;2023-03-21T02:25:23;96270.38;;;13.84;62.18
5954;BME280;3002;42.642;24.812;2023-03-21T02:28:00;96244.84;;;13.90;61.33
5954;BME280;3002;42.642;24.812;2023-03-21T02:39:11;96263.19;;;14.28;63.44
5954;BME280;3002;42.642;24.812;2023-03-21T02:41:48;96257.38;;;14.52;63.32
5954;BME280;3002;42.642;24.812;2023-03-21T02:46:58;96248.59;;;14.46;63.75
5954;BME280;3002;42.642;24.812;2023-03-21T02:52:21;96279.09;;;14.47;64.82
5954;BME280;3002;42.642;24.812;2023-03-21T02:54:49;96264.16;;;14.40;63.21
5954;BME280;3002;42.642;24.812;2023-03-21T02:57:17;96280.06;;;14.68;63.57
5954;BME280;3002;42.642;24.812;2023-03-21T02:59:45;96266.88;;;14.49;64.56
5954;BME280;3002;42.642;24.812;2023-03-21T03:02:14;96261.75;;;14.39;64.05
5954;BME280;3002;42.642;24.812;2023-03-21T03:04:39;96229.66;;;14.03;64.34
5954;BME280;3002;42.642;24.812;2023-03-21T03:09:52;96262.81;;;13.01;68.55
5954;BME280;3002;42.642;24.812;2023-03-21T03:17:52;96247.53;;;13.81;66.10
5954;BME280;3002;42.642;24.812;2023-03-21T03:25:55;96212.63;;;13.05;69.52
5954;BME280;3002;42.642;24.812;2023-03-21T03:28:26;96244.72;;;13.55;68.74
5954;BME280;3002;42.642;24.812;2023-03-21T03:30:54;96226.63;;;13.38;68.10
5954;BME280;3002;42.642;24.812;2023-03-21T03:33:23;96228.88;;;13.54;67.50
5954;BME280;3002;42.642;24.812;2023-03-21T03:35:52;96202.84;;;13.41;67.14
5954;BME280;3002;42.642;24.812;2023-03-21T03:38:20;96204.78;;;13.49;66.44
5954;BME280;3002;42.642;24.812;2023-03-21T03:40:51;96212.31;;;13.07;69.52
5954;BME280;3002;42.642;24.812;2023-03-21T03:43:22;96246.28;;;13.48;69.15
5954;BME280;3002;42.642;24.812;2023-03-21T03:45:58;96216.31;;;13.32;68.91
5954;BME280;3002;42.642;24.812;2023-03-21T03:48:48;96256.03;;;13.26;70.94
5954;BME280;3002;42.642;24.812;2023-03-21T03:51:23;96197.38;;;12.92;71.18
5954;BME280;3002;42.642;24.812;2023-03-21T03:53:54;96228.41;;;12.90;74.11
5954;BME280;3002;42.642;24.812;2023-03-21T03:56:22;96208.50;;;12.99;71.62
5954;BME280;3002;42.642;24.812;2023-03-21T03:58:49;96223.19;;;12.93;72.36
5954;BME280;3002;42.642;24.812;2023-03-21T04:01:15;96233.28;;;12.88;73.58
5954;BME280;3002;42.642;24.812;2023-03-21T04:03:45;96243.16;;;13.01;74.28
5954;BME280;3002;42.642;24.812;2023-03-21T04:06:12;96204.06;;;12.72;74.75
5954;BME280;3002;42.642;24.812;2023-03-21T04:08:37;96234.03;;;12.79;73.51
5954;BME280;3002;42.642;24.812;2023-03-21T04:11:03;96240.25;;;12.89;73.33
5954;BME280;3002;42.642;24.812;2023-03-21T04:13:29;96221.16;;;12.76;73.13
5954;BME280;3002;42.642;24.812;2023-03-21T04:15:54;96232.88;;;12.13;78.08
5954;BME280;3002;42.642;24.812;2023-03-21T04:18:21;96218.97;;;12.56;74.39
5954;BME280;3002;42.642;24.812;2023-03-21T04:20:48;96237.75;;;12.92;72.14
5954;BME280;3002;42.642;24.812;2023-03-21T04:23:16;96270.47;;;13.08;72.61
5954;BME280;3002;42.642;24.812;2023-03-21T04:25:44;96287.84;;;12.79;75.09
5954;BME280;3002;42.642;24.812;2023-03-21T04:28:10;96256.75;;;12.51;75.60
5954;BME280;3002;42.642;24.812;2023-03-21T04:30:36;96259.31;;;12.56;74.81
5954;BME280;3002;42.642;24.812;2023-03-21T04:33:01;96276.88;;;12.98;72.49
5954;BME280;3002;42.642;24.812;2023-03-21T04:35:27;96261.59;;;12.85;72.64
5954;BME280;3002;42.642;24.812;2023-03-21T04:37:53;96250.28;;;12.74;72.89
5954;BME280;3002;42.642;24.812;2023-03-21T04:40:19;96295.22;;;12.74;74.55
5954;BME280;3002;42.642;24.812;2023-03-21T04:42:46;96249.38;;;12.79;72.78
5954;BME280;3002;42.642;24.812;2023-03-21T04:45:12;96259.09;;;12.89;71.77
5954;BME280;3002;42.642;24.812;2023-03-21T04:47:38;96270.88;;;13.01;71.47
5954;BME280;3002;42.642;24.812;2023-03-21T04:50:05;96296.41;;;13.04;72.39
5954;BME280;3002;42.642;24.812;2023-03-21T04:52:31;96296.75;;;13.11;71.64
5954;BME280;3002;42.642;24.812;2023-03-21T04:54:56;96282.28;;;12.98;72.15
5954;BME280;3002;42.642;24.812;2023-03-21T04:57:22;96286.38;;;12.96;73.12
5954;BME280;3002;42.642;24.812;2023-03-21T04:59:48;96284.44;;;13.19;70.78
5954;BME280;3002;42.642;24.812;2023-03-21T05:02:13;96311.44;;;13.50;69.50
5954;BME280;3002;42.642;24.812;2023-03-21T05:04:39;96299.13;;;13.26;69.91
5954;BME280;3002;42.642;24.812;2023-03-21T05:07:05;96303.44;;;13.13;70.95
5954;BME280;3002;42.642;24.812;2023-03-21T05:09:31;96257.47;;;12.65;72.86
5954;BME280;3002;42.642;24.812;2023-03-21T05:11:56;96275.41;;;13.15;69.54
5954;BME280;3002;42.642;24.812;2023-03-21T05:14:24;96317.97;;;13.97;66.85
5954;BME280;3002;42.642;24.812;2023-03-21T05:16:50;96308.00;;;13.98;66.27
5954;BME280;3002;42.642;24.812;2023-03-21T05:19:30;96317.75;;;14.25;66.13
5954;BME280;3002;42.642;24.812;2023-03-21T05:22:06;96316.88;;;14.55;64.89
5954;BME280;3002;42.642;24.812;2023-03-21T05:24:33;96295.31;;;14.64;62.19
5954;BME280;3002;42.642;24.812;2023-03-21T05:27:00;96329.59;;;15.24;60.33
5954;BME280;3002;42.642;24.812;2023-03-21T05:29:29;96297.06;;;15.59;58.19
5954;BME280;3002;42.642;24.812;2023-03-21T05:31:55;96327.63;;;16.36;56.39
5954;BME280;3002;42.642;24.812;2023-03-21T05:34:21;96317.28;;;16.38;55.79
5954;BME280;3002;42.642;24.812;2023-03-21T05:36:47;96299.59;;;17.03;54.11
5954;BME280;3002;42.642;24.812;2023-03-21T05:39:12;96305.00;;;16.40;54.78
5954;BME280;3002;42.642;24.812;2023-03-21T05:41:38;96275.44;;;16.05;55.57
5954;BME280;3002;42.642;24.812;2023-03-21T05:44:03;96301.34;;;16.87;54.64
5954;BME280;3002;42.642;24.812;2023-03-21T05:46:29;96297.34;;;17.71;52.36
5954;BME280;3002;42.642;24.812;2023-03-21T05:48:55;96272.19;;;17.95;51.04
5954;BME280;3002;42.642;24.812;2023-03-21T05:51:20;96268.03;;;19.46;48.01
5954;BME280;3002;42.642;24.812;2023-03-21T05:53:46;96275.97;;;20.15;46.15
5954;BME280;3002;42.642;24.812;2023-03-21T05:56:11;96267.47;;;20.00;46.54
5954;BME280;3002;42.642;24.812;2023-03-21T05:58:37;96264.75;;;18.69;49.04
5954;BME280;3002;42.642;24.812;2023-03-21T06:01:02;96246.75;;;17.30;52.01
5954;BME280;3002;42.642;24.812;2023-03-21T06:03:28;96290.22;;;16.58;55.82
5954;BME280;3002;42.642;24.812;2023-03-21T06:05:53;96294.50;;;15.71;57.24
5954;BME280;3002;42.642;24.812;2023-03-21T06:08:19;96294.50;;;16.59;55.93
5954;BME280;3002;42.642;24.812;2023-03-21T06:10:44;96277.53;;;17.13;54.52
5954;BME280;3002;42.642;24.812;2023-03-21T06:13:10;96283.25;;;17.78;53.19
5954;BME280;3002;42.642;24.812;2023-03-21T06:15:35;96274.47;;;17.48;53.54
5954;BME280;3002;42.642;24.812;2023-03-21T06:18:01;96298.94;;;17.72;53.54
5954;BME280;3002;42.642;24.812;2023-03-21T06:20:26;96296.25;;;17.06;55.33
5954;BME280;3002;42.642;24.812;2023-03-21T06:22:52;96290.53;;;17.20;55.84
5954;BME280;3002;42.642;24.812;2023-03-21T06:25:22;96288.00;;;17.35;55.39
5954;BME280;3002;42.642;24.812;2023-03-21T06:27:48;96269.25;;;17.43;54.65
5954;BME280;3002;42.642;24.812;2023-03-21T06:30:14;96273.38;;;17.16;55.32
5954;BME280;3002;42.642;24.812;2023-03-21T06:32:39;96253.19;;;16.71;56.77
5954;BME280;3002;42.642;24.812;2023-03-21T06:35:05;96272.88;;;16.80;56.63
5954;BME280;3002;42.642;24.812;2023-03-21T06:37:31;96278.47;;;16.96;55.73
5954;BME280;3002;42.642;24.812;2023-03-21T06:39:57;96303.75;;;17.21;55.72
5954;BME280;3002;42.642;24.812;2023-03-21T06:42:22;96310.13;;;17.37;55.47
5954;BME280;3002;42.642;24.812;2023-03-21T06:44:48;96296.84;;;17.69;55.22
5954;BME280;3002;42.642;24.812;2023-03-21T06:47:13;96304.16;;;18.02;53.67
5954;BME280;3002;42.642;24.812;2023-03-21T06:49:39;96280.84;;;17.31;54.55
5954;BME280;3002;42.642;24.812;2023-03-21T06:52:07;96279.88;;;17.35;54.36
5954;BME280;3002;42.642;24.812;2023-03-21T06:54:32;96301.38;;;17.20;55.19
5954;BME280;3002;42.642;24.812;2023-03-21T06:56:58;96304.88;;;17.20;55.14
5954;BME280;3002;42.642;24.812;2023-03-21T06:59:23;96311.25;;;17.03;55.85
5954;BME280;3002;42.642;24.812;2023-03-21T07:01:48;96283.28;;;16.70;56.87
5954;BME280;3002;42.642;24.812;2023-03-21T07:04:14;96279.25;;;16.97;55.88
5954;BME280;3002;42.642;24.812;2023-03-21T07:06:39;96267.84;;;16.49;56.02
5954;BME280;3002;42.642;24.812;2023-03-21T07:09:05;96297.06;;;17.52;54.51
5954;BME280;3002;42.642;24.812;2023-03-21T07:11:31;96287.84;;;17.32;54.88
5954;BME280;3002;42.642;24.812;2023-03-21T07:13:57;96297.47;;;17.75;53.62
5954;BME280;3002;42.642;24.812;2023-03-21T07:16:22;96299.56;;;16.91;55.52
5954;BME280;3002;42.642;24.812;2023-03-21T07:18:49;96287.91;;;17.11;56.20
5954;BME280;3002;42.642;24.812;2023-03-21T07:21:15;96311.50;;;17.44;55.58
5954;BME280;3002;42.642;24.812;2023-03-21T07:23:41;96277.31;;;17.51;55.23
5954;BME280;3002;42.642;24.812;2023-03-21T07:26:07;96306.56;;;16.92;56.75
5954;BME280;3002;42.642;24.812;2023-03-21T07:28:33;96281.91;;;16.84;57.31
5954;BME280;3002;42.642;24.812;2023-03-21T07:31:01;96271.28;;;17.33;55.82
5954;BME280;3002;42.642;24.812;2023-03-21T07:33:29;96292.53;;;18.13;53.67
5954;BME280;3002;42.642;24.812;2023-03-21T07:35:55;96292.59;;;18.78;52.24
5954;BME280;3002;42.642;24.812;2023-03-21T07:38:22;96283.00;;;18.44;52.03
5954;BME280;3002;42.642;24.812;2023-03-21T07:40:47;96283.41;;;18.70;51.11
5954;BME280;3002;42.642;24.812;2023-03-21T07:43:14;96249.28;;;18.45;51.83
5954;BME280;3002;42.642;24.812;2023-03-21T07:45:40;96292.75;;;18.97;52.06
5954;BME280;3002;42.642;24.812;2023-03-21T07:48:07;96260.81;;;18.54;52.43
5954;BME280;3002;42.642;24.812;2023-03-21T07:50:33;96286.63;;;18.48;51.98
5954;BME280;3002;42.642;24.812;2023-03-21T07:52:58;96276.44;;;19.41;49.78
5954;BME280;3002;42.642;24.812;2023-03-21T07:55:24;96286.78;;;19.64;49.78
5954;BME280;3002;42.642;24.812;2023-03-21T07:57:50;96269.22;;;19.77;49.44
5954;BME280;3002;42.642;24.812;2023-03-21T08:00:17;96264.06;;;20.39;48.08
5954;BME280;3002;42.642;24.812;2023-03-21T08:02:54;96299.56;;;20.58;47.35
5954;BME280;3002;42.642;24.812;2023-03-21T08:05:22;96288.09;;;19.70;49.56
5954;BME280;3002;42.642;24.812;2023-03-21T08:07:48;96278.03;;;20.37;48.05
5954;BME280;3002;42.642;24.812;2023-03-21T08:10:14;96294.41;;;22.15;44.56
5954;BME280;3002;42.642;24.812;2023-03-21T08:12:40;96270.91;;;22.33;43.19
5954;BME280;3002;42.642;24.812;2023-03-21T08:15:06;96280.88;;;22.79;42.41
5954;BME280;3002;42.642;24.812;2023-03-21T08:17:32;96269.38;;;22.66;42.04
5954;BME280;3002;42.642;24.812;2023-03-21T08:19:58;96245.13;;;21.39;43.84
5954;BME280;3002;42.642;24.812;2023-03-21T08:22:23;96262.06;;;21.29;44.59
5954;BME280;3002;42.642;24.812;2023-03-21T08:24:49;96241.06;;;19.85;46.76
5954;BME280;3002;42.642;24.812;2023-03-21T08:27:14;96271.69;;;19.66;47.48
5954;BME280;3002;42.642;24.812;2023-03-21T08:29:39;96281.44;;;19.67;47.75
5954;BME280;3002;42.642;24.812;2023-03-21T08:32:07;96298.38;;;18.52;50.49
5954;BME280;3002;42.642;24.812;2023-03-21T08:34:33;96283.44;;;19.70;48.95
5954;BME280;3002;42.642;24.812;2023-03-21T08:37:00;96284.75;;;21.75;45.07
5954;BME280;3002;42.642;24.812;2023-03-21T08:39:25;96247.44;;;21.37;45.12
5954;BME280;3002;42.642;24.812;2023-03-21T08:41:51;96274.81;;;22.36;42.91
5954;BME280;3002;42.642;24.812;2023-03-21T08:44:20;96267.97;;;22.76;42.71
5954;BME280;3002;42.642;24.812;2023-03-21T08:46:46;96244.09;;;23.36;41.06
5954;BME280;3002;42.642;24.812;2023-03-21T08:49:11;96237.44;;;23.74;40.11
5954;BME280;3002;42.642;24.812;2023-03-21T08:51:37;96244.63;;;23.90;39.88
5954;BME280;3002;42.642;24.812;2023-03-21T08:54:03;96253.56;;;23.83;39.96
5954;BME280;3002;42.642;24.812;2023-03-21T08:56:28;96234.47;;;23.53;40.51
5954;BME280;3002;42.642;24.812;2023-03-21T08:58:53;96275.13;;;24.36;39.48
5954;BME280;3002;42.642;24.812;2023-03-21T09:01:19;96230.72;;;23.65;39.48
5954;BME280;3002;42.642;24.812;2023-03-21T09:03:45;96248.25;;;23.23;40.08
5954;BME280;3002;42.642;24.812;2023-03-21T09:06:11;96245.66;;;22.17;42.88
5954;BME280;3002;42.642;24.812;2023-03-21T09:08:39;96272.22;;;20.03;48.05
5954;BME280;3002;42.642;24.812;2023-03-21T09:11:07;96265.41;;;19.06;50.00
5954;BME280;3002;42.642;24.812;2023-03-21T09:13:33;96269.47;;;19.12;50.80
5954;BME280;3002;42.642;24.812;2023-03-21T09:15:59;96261.44;;;20.26;47.38
5954;BME280;3002;42.642;24.812;2023-03-21T09:18:26;96270.13;;;21.02;45.77
5954;BME280;3002;42.642;24.812;2023-03-21T09:21:07;96242.22;;;21.97;43.31
5954;BME280;3002;42.642;24.812;2023-03-21T09:23:37;96240.94;;;22.40;42.26
5954;BME280;3002;42.642;24.812;2023-03-21T09:26:03;96251.16;;;20.36;45.78
5954;BME280;3002;42.642;24.812;2023-03-21T09:28:29;96247.25;;;20.17;46.54
5954;BME280;3002;42.642;24.812;2023-03-21T09:30:57;96260.72;;;21.00;45.11
5954;BME280;3002;42.642;24.812;2023-03-21T09:33:23;96232.38;;;20.66;45.28
5954;BME280;3002;42.642;24.812;2023-03-21T09:35:49;96252.41;;;18.99;48.65
5954;BME280;3002;42.642;24.812;2023-03-21T09:38:15;96235.22;;;20.02;47.23
5954;BME280;3002;42.642;24.812;2023-03-21T09:46:38;96267.53;;;18.85;49.82
5954;BME280;3002;42.642;24.812;2023-03-21T09:51:50;96251.78;;;19.62;48.23
5954;BME280;3002;42.642;24.812;2023-03-21T09:54:27;96257.19;;;19.78;46.88
5954;BME280;3002;42.642;24.812;2023-03-21T09:57:04;96259.19;;;20.13;46.81
5954;BME280;3002;42.642;24.812;2023-03-21T09:59:37;96266.91;;;20.26;46.69
5954;BME280;3002;42.642;24.812;2023-03-21T10:02:33;96256.16;;;19.23;49.12
5954;BME280;3002;42.642;24.812;2023-03-21T10:05:02;96246.94;;;18.84;50.12
5954;BME280;3002;42.642;24.812;2023-03-21T10:07:38;96244.25;;;19.28;49.65
5954;BME280;3002;42.642;24.812;2023-03-21T10:10:05;96246.28;;;18.62;51.01
5954;BME280;3002;42.642;24.812;2023-03-21T10:12:31;96221.25;;;19.09;50.05
5954;BME280;3002;42.642;24.812;2023-03-21T10:14:59;96226.59;;;19.21;50.02
5954;BME280;3002;42.642;24.812;2023-03-21T10:17:33;96191.53;;;18.20;52.40
5954;BME280;3002;42.642;24.812;2023-03-21T10:20:23;96199.00;;;17.62;54.47
5954;BME280;3002;42.642;24.812;2023-03-21T10:22:51;96198.84;;;19.00;51.72
5954;BME280;3002;42.642;24.812;2023-03-21T10:25:24;96160.00;;;18.84;51.36
5954;BME280;3002;42.642;24.812;2023-03-21T10:27:51;96149.88;;;18.68;52.17
5954;BME280;3002;42.642;24.812;2023-03-21T10:33:01;96192.75;;;19.19;50.96
5954;BME280;3002;42.642;24.812;2023-03-21T10:35:31;96211.63;;;19.28;52.99
5954;BME280;3002;42.642;24.812;2023-03-21T10:38:01;96205.06;;;19.60;52.80
5954;BME280;3002;42.642;24.812;2023-03-21T10:40:27;96256.06;;;19.95;53.27
5954;BME280;3002;42.642;24.812;2023-03-21T10:43:13;96235.06;;;19.95;52.29
5954;BME280;3002;42.642;24.812;2023-03-21T10:45:39;96255.38;;;20.49;50.79
5954;BME280;3002;42.642;24.812;2023-03-21T10:48:06;96240.34;;;21.32;49.76
5954;BME280;3002;42.642;24.812;2023-03-21T10:50:32;96219.00;;;20.76;49.97
5954;BME280;3002;42.642;24.812;2023-03-21T10:52:58;96182.31;;;21.58;49.00
5954;BME280;3002;42.642;24.812;2023-03-21T10:55:34;96203.44;;;22.11;47.52
5954;BME280;3002;42.642;24.812;2023-03-21T10:58:12;96172.69;;;21.91;47.34
5954;BME280;3002;42.642;24.812;2023-03-21T11:00:44;96168.31;;;21.60;47.96
5954;BME280;3002;42.642;24.812;2023-03-21T11:03:24;96171.53;;;20.42;50.01
5954;BME280;3002;42.642;24.812;2023-03-21T11:05:57;96171.81;;;22.10;47.83
5954;BME280;3002;42.642;24.812;2023-03-21T11:08:24;96189.31;;;22.95;44.90
5954;BME280;3002;42.642;24.812;2023-03-21T11:13:23;96184.88;;;24.79;41.47
5954;BME280;3002;42.642;24.812;2023-03-21T11:15:56;96202.38;;;23.09;44.38
5954;BME280;3002;42.642;24.812;2023-03-21T11:18:25;96188.09;;;22.59;45.30
5954;BME280;3002;42.642;24.812;2023-03-21T11:21:12;96183.41;;;23.27;44.76
5954;BME280;3002;42.642;24.812;2023-03-21T11:23:47;96168.75;;;21.88;46.90
5954;BME280;3002;42.642;24.812;2023-03-21T11:26:32;96150.88;;;23.18;44.86
5954;BME280;3002;42.642;24.812;2023-03-21T11:31:40;96129.53;;;23.35;43.73
5954;BME280;3002;42.642;24.812;2023-03-21T11:34:07;96137.88;;;24.00;42.21
5954;BME280;3002;42.642;24.812;2023-03-21T11:36:37;96119.13;;;23.07;44.30
5954;BME280;3002;42.642;24.812;2023-03-21T11:41:53;96112.19;;;21.89;46.44
5954;BME280;3002;42.642;24.812;2023-03-21T11:44:42;96116.41;;;21.83;46.17
5954;BME280;3002;42.642;24.812;2023-03-21T11:47:09;96120.47;;;22.53;45.32
5954;BME280;3002;42.642;24.812;2023-03-21T11:49:35;96114.94;;;21.89;46.07
5954;BME280;3002;42.642;24.812;2023-03-21T11:52:27;96091.59;;;21.38;47.00
5954;BME280;3002;42.642;24.812;2023-03-21T12:00:20;96103.66;;;20.72;49.00
5954;BME280;3002;42.642;24.812;2023-03-21T12:03:15;96105.75;;;21.74;46.60
5954;BME280;3002;42.642;24.812;2023-03-21T12:05:58;96110.97;;;21.56;46.84
5954;BME280;3002;42.642;24.812;2023-03-21T12:11:26;96112.59;;;22.14;45.52
5954;BME280;3002;42.642;24.812;2023-03-21T12:14:33;96099.34;;;21.63;47.25
5954;BME280;3002;42.642;24.812;2023-03-21T12:24:53;96069.94;;;21.49;47.46
5954;BME280;3002;42.642;24.812;2023-03-21T12:30:31;96058.81;;;21.61;46.75
5954;BME280;3002;42.642;24.812;2023-03-21T12:33:32;96044.28;;;21.54;46.83
5954;BME280;3002;42.642;24.812;2023-03-21T12:44:28;96055.22;;;22.48;45.80
5954;BME280;3002;42.642;24.812;2023-03-21T12:47:00;96026.69;;;20.37;49.18
5954;BME280;3002;42.642;24.812;2023-03-21T12:52:11;96055.09;;;21.24;48.80
5954;BME280;3002;42.642;24.812;2023-03-21T12:54:41;96055.53;;;20.80;49.41
5954;BME280;3002;42.642;24.812;2023-03-21T12:59:57;96029.72;;;20.74;48.19
5954;BME280;3002;42.642;24.812;2023-03-21T13:02:45;96030.38;;;21.36;46.38
5954;BME280;3002;42.642;24.812;2023-03-21T13:05:29;96036.50;;;20.61;48.34
5954;BME280;3002;42.642;24.812;2023-03-21T13:08:02;96051.22;;;20.17;49.43
5954;BME280;3002;42.642;24.812;2023-03-21T13:10:29;96020.16;;;20.61;48.37
5954;BME280;3002;42.642;24.812;2023-03-21T13:18:43;96041.25;;;22.19;44.78
5954;BME280;3002;42.642;24.812;2023-03-21T13:23:59;96035.25;;;21.27;46.95
5954;BME280;3002;42.642;24.812;2023-03-21T13:26:35;96035.44;;;21.94;46.25
5954;BME280;3002;42.642;24.812;2023-03-21T13:29:32;96016.44;;;21.71;45.92
5954;BME280;3002;42.642;24.812;2023-03-21T13:34:56;96036.84;;;21.05;47.35
5954;BME280;3002;42.642;24.812;2023-03-21T13:37:25;96044.59;;;22.09;45.73
5954;BME280;3002;42.642;24.812;2023-03-21T13:39:59;96010.41;;;22.18;44.49
5954;BME280;3002;42.642;24.812;2023-03-21T13:44:59;96022.94;;;21.89;45.59
5954;BME280;3002;42.642;24.812;2023-03-21T13:47:50;96017.56;;;21.40;46.33
5954;BME280;3002;42.642;24.812;2023-03-21T13:52:48;95994.94;;;21.13;46.35
5954;BME280;3002;42.642;24.812;2023-03-21T13:55:39;95990.34;;;22.37;45.09
5954;BME280;3002;42.642;24.812;2023-03-21T14:01:32;96013.75;;;22.38;45.51
5954;BME280;3002;42.642;24.812;2023-03-21T14:04:07;96017.13;;;21.95;46.57
5954;BME280;3002;42.642;24.812;2023-03-21T14:06:45;96008.78;;;21.27;47.95
5954;BME280;3002;42.642;24.812;2023-03-21T14:11:51;95976.22;;;20.43;49.42
5954;BME280;3002;42.642;24.812;2023-03-21T14:14:20;95986.97;;;20.55;49.68
5954;BME280;3002;42.642;24.812;2023-03-21T14:16:46;95989.22;;;20.30;50.69
5954;BME280;3002;42.642;24.812;2023-03-21T14:19:12;95957.38;;;20.11;50.54
5954;BME280;3002;42.642;24.812;2023-03-21T14:21:46;95966.47;;;20.19;50.62
5954;BME280;3002;42.642;24.812;2023-03-21T14:24:16;95965.78;;;19.83;51.44
5954;BME280;3002;42.642;24.812;2023-03-21T14:26:47;95977.09;;;20.04;51.02
5954;BME280;3002;42.642;24.812;2023-03-21T14:29:24;95948.78;;;19.32;52.15
5954;BME280;3002;42.642;24.812;2023-03-21T14:31:50;96001.53;;;19.82;52.13
5954;BME280;3002;42.642;24.812;2023-03-21T14:34:17;95999.94;;;20.00;51.46
5954;BME280;3002;42.642;24.812;2023-03-21T14:36:43;95987.38;;;19.57;52.53
5954;BME280;3002;42.642;24.812;2023-03-21T14:39:26;96013.81;;;20.34;51.46
5954;BME280;3002;42.642;24.812;2023-03-21T14:41:54;96002.97;;;20.37;50.58
5954;BME280;3002;42.642;24.812;2023-03-21T14:44:26;95992.06;;;19.95;50.88
5954;BME280;3002;42.642;24.812;2023-03-21T14:47:02;95995.72;;;19.83;51.44
5954;BME280;3002;42.642;24.812;2023-03-21T14:49:33;96006.84;;;20.36;50.78
5954;BME280;3002;42.642;24.812;2023-03-21T14:52:01;95982.97;;;20.07;50.84
5954;BME280;3002;42.642;24.812;2023-03-21T14:54:28;95997.66;;;19.47;52.03
5954;BME280;3002;42.642;24.812;2023-03-21T14:57:00;96003.59;;;20.08;51.34
5954;BME280;3002;42.642;24.812;2023-03-21T14:59:31;96008.16;;;19.65;51.77
5954;BME280;3002;42.642;24.812;2023-03-21T15:01:59;96033.97;;;19.20;54.52
5954;BME280;3002;42.642;24.812;2023-03-21T15:04:27;96036.91;;;20.01;53.23
5954;BME280;3002;42.642;24.812;2023-03-21T15:06:55;96038.38;;;19.44;54.41
5954;BME280;3002;42.642;24.812;2023-03-21T15:09:24;96022.13;;;19.47;54.58
5954;BME280;3002;42.642;24.812;2023-03-21T15:11:55;96035.09;;;19.70;53.99